Flight Track Log - Related Links

Times and Time Zones

All times are in EST time to prevent confusion due to time zone crossing. See the N98834 flight status page for this flight to view local times or setup timezone preferences in your user account.

Time Position Orientation Groundspeed Altitude Reporting Facility
EST Latitude Longitude Course Direction KTS MPH feet Rate Location/Type
Sat 02:51:27 PM 27.9333 -82.6833 319° Northwest 123 142 400  Level Tampa TRACON
Sat 02:52:27 PM 27.9500 -82.7000 319° Northwest 111 128 1,500 1,150 Climbing Tampa TRACON
Sat 02:53:27 PM 27.9833 -82.7167 336° Northwest 111 128 2,700 750 Climbing Tampa TRACON
Sat 02:54:27 PM 28.0167 -82.7000 24° Northeast 151 174 3,000 150 Climbing Tampa TRACON
Sat 02:55:27 PM 28.0000 -82.6500 111° Southeast 215 247 3,000  Level Tampa TRACON
Sat 02:56:33 PM 27.9833 -82.5833 106° East 210 242 3,000  Level Tampa TRACON
Sat 02:57:27 PM 27.9667 -82.5167 106° East 201 231 3,000  Level Tampa TRACON
Sat 02:58:27 PM 27.9667 -82.4667 90° East 203 234 3,000 100 Level Tampa TRACON
Sat 02:59:27 PM 27.9500 -82.4000 106° East 207 238 3,200 579 Climbing Tampa TRACON
Sat 03:00:21 PM 27.9500 -82.3500 90° East 179 206 4,100 950 Climbing Tampa TRACON
Sat 03:01:27 PM 27.9333 -82.2833 106° East 164 189 5,100 850 Climbing Tampa TRACON
Sat 03:02:28 PM 27.9000 -82.2500 139° Southeast 178 205 5,900 597 Climbing Tampa TRACON
Sat 03:04:38 PM 27.8403 -82.1444 123° Southeast 190 219 7,000 347 Climbing Miami Center
Sat 03:05:38 PM 27.7986 -82.0886 130° Southeast 205 236 7,000  Level Miami Center
Sat 03:06:38 PM 27.7631 -82.0331 126° Southeast 223 257 7,000  Level Miami Center
Sat 03:07:38 PM 27.7192 -81.9725 129° Southeast 223 257 7,000  Level Miami Center
Sat 03:08:38 PM 27.6814 -81.9192 129° Southeast 217 250 7,000  Level Miami Center
Sat 03:09:38 PM 27.6417 -81.8636 129° Southeast 217 250 7,000  Level Miami Center
Sat 03:10:38 PM 27.6058 -81.8153 130° Southeast 217 250 7,000  Level Miami Center
Sat 03:11:38 PM 27.5658 -81.7619 130° Southeast 217 250 7,000  Level Miami Center
Sat 03:12:38 PM 27.5242 -81.7039 129° Southeast 217 250 7,000  Level Miami Center
Sat 03:13:38 PM 27.4861 -81.6508 129° Southeast 217 250 7,000  Level Miami Center
Sat 03:14:38 PM 27.4461 -81.5978 130° Southeast 217 250 7,000  Level Miami Center
Sat 03:15:38 PM 27.4083 -81.5447 129° Southeast 217 250 7,000  Level Miami Center
Sat 03:16:38 PM 27.3683 -81.4917 130° Southeast 217 250 7,000  Level Miami Center
Sat 03:17:38 PM 27.3303 -81.4364 128° Southeast 217 250 7,000  Level Miami Center
Sat 03:18:38 PM 27.2903 -81.3811 129° Southeast 217 250 7,000  Level Miami Center
Sat 03:19:38 PM 27.2564 -81.3331 128° Southeast 217 250 7,000  Level Miami Center
Sat 03:20:38 PM 27.2161 -81.2800 130° Southeast 217 250 7,000 50 Level Miami Center
Sat 03:21:38 PM 27.1742 -81.2225 129° Southeast 217 250 7,100 50 Climbing Miami Center
Sat 03:22:38 PM 27.1381 -81.1722 129° Southeast 212 244 7,100  Level Miami Center
Sat 03:23:38 PM 27.1000 -81.1194 129° Southeast 217 250 7,100  Level Miami Center
Sat 03:24:38 PM 27.0658 -81.0739 130° Southeast 212 244 7,100  Level Miami Center
Sat 03:25:38 PM 27.0256 -81.0164 128° Southeast 212 244 7,100  Level Miami Center
Sat 03:26:38 PM 26.9875 -80.9661 130° Southeast 212 244 7,100  Level Miami Center
Sat 03:27:38 PM 26.9514 -80.9136 128° Southeast 212 244 7,100  Level Miami Center
Sat 03:28:38 PM 26.9150 -80.8681 132° Southeast 212 244 7,100  Level Miami Center
Sat 03:29:38 PM 26.8808 -80.8158 126° Southeast 212 244 7,100  Level Miami Center
Sat 03:30:38 PM 26.8367 -80.7583 131° Southeast 212 244 7,100  Level Miami Center
Sat 03:31:38 PM 26.7981 -80.7106 132° Southeast 212 244 7,100  Level Miami Center
Sat 03:32:38 PM 26.7619 -80.6628 130° Southeast 215 247 7,100  Level Miami Center
Sat 03:33:38 PM 26.7256 -80.6083 127° Southeast 209 241 7,100  Level Miami Center
Sat 03:34:38 PM 26.6914 -80.5558 126° Southeast 209 241 7,100 -200 Level Miami Center
Sat 03:35:38 PM 26.6617 -80.4992 120° Southeast 215 247 6,700 -450 Descending Miami Center
Sat 03:36:38 PM 26.6656 -80.4272 87° East 208 239 6,200 -500 Descending Miami Center
Sat 03:38:00 PM 26.6018 -80.3938 155° Southeast  Level FlightAware Approximate
Sat 03:45:00 PM 26.3785 -80.1077 180° South  Level Estimated
Sat 03:46:00 PM 26.3785 -80.1077 180° South  Level Estimated
Sat 03:47:00 PM 26.3785 -80.1077 180° South  Level Estimated
Sat 03:48:00 PM 26.3785 -80.1077 180° South  Level Estimated
Sat 03:49:00 PM 26.3785 -80.1077 180° South  Level Estimated
Sat 03:50:00 PM 26.3785 -80.1077 180° South  Level Estimated
Sat 03:51:00 PM 26.3785 -80.1077 180° South  Level Estimated
Sat 03:52:00 PM 26.3785 -80.1077 180° South  Level Estimated
Sat 03:53:00 PM 26.3785 -80.1077 180° South  Level Estimated
Sat 03:54:00 PM 26.3785 -80.1077 180° South  Level Estimated
Sat 03:55:00 PM 26.3785 -80.1077 180° South  Level Estimated
Sat 03:56:00 PM 26.3785 -80.1077 180° South  Level Estimated

Login

Don't have an account? Register now (free) for customized features, flight alerts, and more!